createdAt,value
2019-06-26T00:00:59.148Z,28.84
2019-06-26T00:01:59.136Z,28.81
2019-06-26T00:02:59.086Z,28.79
2019-06-26T00:03:59.064Z,28.91
2019-06-26T00:04:59.101Z,28.78
2019-06-26T00:05:59.047Z,28.85
2019-06-26T00:06:59.062Z,28.81
2019-06-26T00:07:59.026Z,28.78
2019-06-26T00:08:59.016Z,28.78
2019-06-26T00:09:59.018Z,28.79
2019-06-26T00:10:58.988Z,28.79
2019-06-26T00:11:58.980Z,28.82
2019-06-26T00:12:58.970Z,28.78
2019-06-26T00:13:58.975Z,28.78
2019-06-26T00:14:58.971Z,28.75
2019-06-26T00:15:58.932Z,28.79
2019-06-26T00:16:58.930Z,28.67
2019-06-26T00:17:58.914Z,28.69
2019-06-26T00:18:58.900Z,28.79
2019-06-26T00:19:58.904Z,28.69
2019-06-26T00:20:58.879Z,28.74
2019-06-26T00:21:58.886Z,28.76
2019-06-26T00:22:58.852Z,28.84
2019-06-26T00:23:58.845Z,28.74
2019-06-26T00:24:58.859Z,28.63
2019-06-26T00:25:58.845Z,28.76
2019-06-26T00:26:58.814Z,28.66
2019-06-26T00:27:58.806Z,28.78
2019-06-26T00:28:58.800Z,28.76
2019-06-26T00:29:58.778Z,28.64
2019-06-26T00:30:58.776Z,28.81
2019-06-26T00:31:58.812Z,28.67
2019-06-26T00:32:58.744Z,28.69
2019-06-26T00:33:58.752Z,28.66
2019-06-26T00:34:58.728Z,28.66
2019-06-26T00:35:58.713Z,28.69
2019-06-26T00:36:58.717Z,28.74
2019-06-26T00:37:58.716Z,28.67
2019-06-26T00:38:58.707Z,28.67
2019-06-26T00:39:58.673Z,28.81
2019-06-26T00:40:58.664Z,28.78
2019-06-26T00:41:58.657Z,28.75
2019-06-26T00:42:58.643Z,28.79
2019-06-26T00:43:58.648Z,28.74
2019-06-26T00:44:58.620Z,28.67
2019-06-26T00:45:58.601Z,28.64
2019-06-26T00:46:58.602Z,28.66
2019-06-26T00:47:58.591Z,28.67
2019-06-26T00:48:58.579Z,28.67
2019-06-26T00:49:58.602Z,28.67
2019-06-26T00:50:58.562Z,28.64
2019-06-26T00:51:58.560Z,28.67
2019-06-26T00:52:58.541Z,28.64
2019-06-26T00:53:58.517Z,28.70
2019-06-26T00:54:58.509Z,28.64
2019-06-26T00:55:58.517Z,28.67
2019-06-26T00:56:58.482Z,28.66
2019-06-26T00:57:58.473Z,28.67
2019-06-26T00:58:58.462Z,28.64
2019-06-26T00:59:58.448Z,28.67
2019-06-26T01:00:58.435Z,28.62
2019-06-26T01:01:58.458Z,28.64
2019-06-26T01:02:58.421Z,28.67
2019-06-26T01:03:58.400Z,28.64
2019-06-26T01:04:58.391Z,28.63
2019-06-26T01:05:58.420Z,28.66
2019-06-26T01:06:58.395Z,28.67
2019-06-26T01:07:58.376Z,28.64
2019-06-26T01:08:58.364Z,28.64
2019-06-26T01:09:58.336Z,28.69
2019-06-26T01:10:58.326Z,28.64
2019-06-26T01:11:58.320Z,28.70
2019-06-26T01:12:58.335Z,28.63
2019-06-26T01:13:58.539Z,28.66
2019-06-26T01:14:58.280Z,28.63
2019-06-26T01:15:58.551Z,28.63
2019-06-26T01:16:58.261Z,28.76
2019-06-26T01:17:58.267Z,28.64
2019-06-26T01:18:58.252Z,28.72
2019-06-26T01:19:58.227Z,28.62
2019-06-26T01:20:58.217Z,28.67
2019-06-26T01:21:58.204Z,28.60
2019-06-26T01:22:58.201Z,28.64
2019-06-26T01:23:58.186Z,28.67
2019-06-26T01:24:58.209Z,28.66
2019-06-26T01:25:58.159Z,28.64
2019-06-26T01:26:58.295Z,28.63
2019-06-26T01:27:58.155Z,28.66
2019-06-26T01:28:58.126Z,28.62
2019-06-26T01:29:58.118Z,28.64
2019-06-26T01:30:58.167Z,28.64
2019-06-26T01:31:58.094Z,28.64
2019-06-26T01:32:58.094Z,28.62
2019-06-26T01:33:58.077Z,28.67
2019-06-26T01:34:58.099Z,28.62
2019-06-26T01:35:58.050Z,28.59
2019-06-26T01:36:58.071Z,28.63
2019-06-26T01:37:58.040Z,28.62
2019-06-26T01:38:58.044Z,28.64
2019-06-26T01:39:58.009Z,28.59
2019-06-26T01:40:58.038Z,28.66
2019-06-26T01:41:57.990Z,28.64
2019-06-26T01:42:57.994Z,28.56
2019-06-26T01:44:10.590Z,28.66
2019-06-26T01:44:58.955Z,28.64
2019-06-26T01:45:57.943Z,28.64
2019-06-26T01:46:57.944Z,28.57
2019-06-26T01:47:57.984Z,28.62
2019-06-26T01:48:57.923Z,28.60
2019-06-26T01:49:57.905Z,28.57
2019-06-26T01:50:57.909Z,28.54
2019-06-26T01:51:57.874Z,28.64
2019-06-26T01:52:57.863Z,28.62
2019-06-26T01:53:57.856Z,28.56
2019-06-26T01:54:57.879Z,28.49
2019-06-26T01:55:57.840Z,28.60
2019-06-26T01:56:57.821Z,28.62
2019-06-26T01:57:57.811Z,28.62
2019-06-26T01:58:57.807Z,28.51
2019-06-26T01:59:57.812Z,28.60
2019-06-26T02:00:57.792Z,28.62
2019-06-26T02:01:57.803Z,28.54
2019-06-26T02:02:57.769Z,28.56
2019-06-26T02:03:57.752Z,28.59
2019-06-26T02:04:57.735Z,28.60
2019-06-26T02:05:57.727Z,28.56
2019-06-26T02:06:57.797Z,28.57
2019-06-26T02:07:57.710Z,28.49
2019-06-26T02:08:57.736Z,28.59
2019-06-26T02:09:57.676Z,28.52
2019-06-26T02:10:57.675Z,28.49
2019-06-26T02:12:00.407Z,28.54
2019-06-26T02:12:57.644Z,28.49
2019-06-26T02:13:57.639Z,28.54
2019-06-26T02:14:57.651Z,28.54
2019-06-26T02:15:57.615Z,28.48
2019-06-26T02:16:57.608Z,28.60
2019-06-26T02:17:57.597Z,28.54
2019-06-26T02:18:57.586Z,28.47
2019-06-26T02:19:57.578Z,28.60
2019-06-26T02:20:57.553Z,28.54
2019-06-26T02:21:57.599Z,28.54
2019-06-26T02:22:57.536Z,28.62
2019-06-26T02:23:57.542Z,28.49
2019-06-26T02:24:57.511Z,28.51
2019-06-26T02:25:57.503Z,28.52
2019-06-26T02:26:57.489Z,28.54
2019-06-26T02:27:57.520Z,28.52
2019-06-26T02:28:57.470Z,28.49
2019-06-26T02:29:57.455Z,28.52
2019-06-26T02:30:57.443Z,28.54
2019-06-26T02:31:57.434Z,28.49
2019-06-26T02:32:57.423Z,28.60
2019-06-26T02:33:57.471Z,28.54
2019-06-26T02:34:57.403Z,28.48
2019-06-26T02:35:57.387Z,28.49
2019-06-26T02:36:57.391Z,28.49
2019-06-26T02:37:57.373Z,28.49
2019-06-26T02:38:57.360Z,28.48
2019-06-26T02:39:57.365Z,28.56
2019-06-26T02:40:57.349Z,28.57
2019-06-26T02:41:57.336Z,28.56
2019-06-26T02:42:57.313Z,28.56
2019-06-26T02:43:57.298Z,28.59
2019-06-26T02:44:57.304Z,28.57
2019-06-26T02:45:57.304Z,28.62
2019-06-26T02:47:17.750Z,28.57
2019-06-26T02:47:58.258Z,28.52
2019-06-26T02:48:57.249Z,28.51
2019-06-26T02:49:57.242Z,28.54
2019-06-26T02:50:57.230Z,28.49
2019-06-26T02:51:57.242Z,28.57
2019-06-26T02:52:57.202Z,28.54
2019-06-26T02:53:57.192Z,28.47
2019-06-26T02:54:57.190Z,28.49
2019-06-26T02:55:57.172Z,28.54
2019-06-26T02:56:57.159Z,28.49
2019-06-26T02:57:57.167Z,28.56
2019-06-26T02:58:57.135Z,28.49
2019-06-26T02:59:57.132Z,28.52
2019-06-26T03:00:57.126Z,28.54
2019-06-26T03:01:57.101Z,28.45
2019-06-26T03:02:57.090Z,28.51
2019-06-26T03:03:57.107Z,28.41
2019-06-26T03:04:57.083Z,28.38
2019-06-26T03:05:57.058Z,28.41
2019-06-26T03:06:57.053Z,28.42
2019-06-26T03:07:57.035Z,28.42
2019-06-26T03:08:57.025Z,28.41
2019-06-26T03:09:57.051Z,28.45
2019-06-26T03:10:57.004Z,28.47
2019-06-26T03:11:56.991Z,28.45
2019-06-26T03:12:56.987Z,28.39
2019-06-26T03:13:56.968Z,28.45
2019-06-26T03:15:08.163Z,28.41
2019-06-26T03:15:57.977Z,28.42
2019-06-26T03:16:56.937Z,28.44
2019-06-26T03:17:56.924Z,28.41
2019-06-26T03:18:56.914Z,28.48
2019-06-26T03:19:56.917Z,28.39
2019-06-26T03:20:56.894Z,28.45
2019-06-26T03:21:56.892Z,28.42
2019-06-26T03:22:56.871Z,28.44
2019-06-26T03:23:56.858Z,28.41
2019-06-26T03:24:56.854Z,28.41
2019-06-26T03:25:56.837Z,28.37
2019-06-26T03:26:56.825Z,28.47
2019-06-26T03:27:56.854Z,28.39
2019-06-26T03:28:56.806Z,28.39
2019-06-26T03:29:56.816Z,28.38
2019-06-26T03:30:56.785Z,28.39
2019-06-26T03:31:56.773Z,28.35
2019-06-26T03:32:56.760Z,28.37
2019-06-26T03:33:56.780Z,28.39
2019-06-26T03:34:56.773Z,28.35
2019-06-26T03:35:56.732Z,28.42
2019-06-26T03:36:56.745Z,28.37
2019-06-26T03:37:56.712Z,28.38
2019-06-26T03:38:56.698Z,28.35
2019-06-26T03:39:56.712Z,28.35
2019-06-26T03:40:56.682Z,28.37
2019-06-26T03:41:56.659Z,28.32
2019-06-26T03:42:56.727Z,28.29
2019-06-26T03:43:56.638Z,28.29
2019-06-26T03:44:56.627Z,28.29
2019-06-26T03:45:56.629Z,28.33
2019-06-26T03:46:56.605Z,28.29
2019-06-26T03:47:56.599Z,28.30
2019-06-26T03:48:56.610Z,28.26
2019-06-26T03:49:56.585Z,28.27
2019-06-26T03:50:56.572Z,28.29
2019-06-26T03:51:56.557Z,28.26
2019-06-26T03:52:56.538Z,28.26
2019-06-26T03:53:56.531Z,28.32
2019-06-26T03:54:56.534Z,28.25
2019-06-26T03:55:56.517Z,28.29
2019-06-26T03:56:56.503Z,28.27
2019-06-26T03:57:56.502Z,28.23
2019-06-26T03:58:56.477Z,28.26
2019-06-26T03:59:56.464Z,28.27
2019-06-26T04:00:56.469Z,28.25
2019-06-26T04:01:56.509Z,28.29
2019-06-26T04:02:56.430Z,28.25
2019-06-26T04:03:57.528Z,28.29
2019-06-26T04:04:56.406Z,28.27
2019-06-26T04:05:56.412Z,28.30
2019-06-26T04:06:56.413Z,28.26
2019-06-26T04:07:56.379Z,28.30
2019-06-26T04:08:56.364Z,28.29
2019-06-26T04:09:56.353Z,28.25
2019-06-26T04:10:56.352Z,28.26
2019-06-26T04:11:56.328Z,28.25
2019-06-26T04:12:56.351Z,28.22
2019-06-26T04:13:56.306Z,28.23
2019-06-26T04:14:56.299Z,28.29
2019-06-26T04:15:56.309Z,28.26
2019-06-26T04:16:56.277Z,28.22
2019-06-26T04:17:56.265Z,28.29
2019-06-26T04:18:56.249Z,28.19
2019-06-26T04:19:56.259Z,28.22
2019-06-26T04:20:56.237Z,28.20
2019-06-26T04:21:56.230Z,28.14
2019-06-26T04:22:56.206Z,28.12
2019-06-26T04:23:56.194Z,28.07
2019-06-26T04:24:56.187Z,28.01
2019-06-26T04:25:56.206Z,28.08
2019-06-26T04:26:56.163Z,28.14
2019-06-26T04:27:56.152Z,28.05
2019-06-26T04:28:56.139Z,28.14
2019-06-26T04:29:56.141Z,28.04
2019-06-26T04:30:56.123Z,28.00
2019-06-26T04:31:56.133Z,27.98
2019-06-26T04:32:56.097Z,27.98
2019-06-26T04:33:56.087Z,27.95
2019-06-26T04:34:56.079Z,27.86
2019-06-26T04:35:56.077Z,27.87
2019-06-26T04:36:56.063Z,27.82
2019-06-26T04:37:56.064Z,27.77
2019-06-26T04:38:56.033Z,27.78
2019-06-26T04:39:56.020Z,27.70
2019-06-26T04:40:56.014Z,27.74
2019-06-26T04:41:56.023Z,27.64
2019-06-26T04:42:55.986Z,27.68
2019-06-26T04:43:56.004Z,27.67
2019-06-26T04:44:55.968Z,27.68
2019-06-26T04:45:58.508Z,27.58
2019-06-26T04:46:55.950Z,27.59
2019-06-26T04:47:55.931Z,27.55
2019-06-26T04:48:55.927Z,27.55
2019-06-26T04:49:55.928Z,27.60
2019-06-26T04:50:55.901Z,27.48
2019-06-26T04:51:55.893Z,27.49
2019-06-26T04:52:55.875Z,27.58
2019-06-26T04:53:55.894Z,27.58
2019-06-26T04:54:55.852Z,27.55
2019-06-26T04:55:55.864Z,27.59
2019-06-26T04:56:55.834Z,27.55
2019-06-26T04:57:55.818Z,27.51
2019-06-26T04:58:55.809Z,27.49
2019-06-26T04:59:55.797Z,27.49
2019-06-26T05:00:55.784Z,27.51
2019-06-26T05:01:55.803Z,27.45
2019-06-26T05:02:55.767Z,27.45
2019-06-26T05:03:55.761Z,27.49
2019-06-26T05:04:55.751Z,27.37
2019-06-26T05:05:55.730Z,27.40
2019-06-26T05:06:55.809Z,27.26
2019-06-26T05:07:55.747Z,27.32
2019-06-26T05:08:55.696Z,27.22
2019-06-26T05:09:55.693Z,27.20
2019-06-26T05:10:55.688Z,27.25
2019-06-26T05:11:55.669Z,27.20
2019-06-26T05:12:55.653Z,27.18
2019-06-26T05:13:55.705Z,27.14
2019-06-26T05:14:55.630Z,27.14
2019-06-26T05:15:55.618Z,27.17
2019-06-26T05:16:55.620Z,27.10
2019-06-26T05:17:55.605Z,27.10
2019-06-26T05:18:55.587Z,27.10
2019-06-26T05:19:55.603Z,27.08
2019-06-26T05:20:55.567Z,27.05
2019-06-26T05:21:55.559Z,27.11
2019-06-26T05:22:55.547Z,27.11
2019-06-26T05:23:55.530Z,27.07
2019-06-26T05:24:55.517Z,27.07
2019-06-26T05:25:55.515Z,27.03
2019-06-26T05:26:55.522Z,27.12
2019-06-26T05:27:55.503Z,27.03
2019-06-26T05:28:55.474Z,27.03
2019-06-26T05:29:55.464Z,27.15
2019-06-26T05:30:55.453Z,27.11
2019-06-26T05:31:55.448Z,27.03
2019-06-26T05:32:55.488Z,27.07
2019-06-26T05:33:55.431Z,27.07
2019-06-26T05:34:55.417Z,27.07
2019-06-26T05:35:55.403Z,27.08
2019-06-26T05:36:55.393Z,27.05
2019-06-26T05:37:55.391Z,27.05
2019-06-26T05:38:55.378Z,27.10
2019-06-26T05:39:55.380Z,27.05
2019-06-26T05:40:55.346Z,27.15
2019-06-26T05:41:55.346Z,27.12
2019-06-26T05:42:55.331Z,27.12
2019-06-26T05:43:55.328Z,27.17
2019-06-26T05:44:55.379Z,27.10
2019-06-26T05:45:55.310Z,27.12
2019-06-26T05:46:55.276Z,27.18
2019-06-26T05:47:55.270Z,27.20
2019-06-26T05:48:55.262Z,27.26
2019-06-26T05:49:55.254Z,27.22
2019-06-26T05:50:55.234Z,27.32
2019-06-26T05:51:55.258Z,27.21
2019-06-26T05:52:55.220Z,27.35
2019-06-26T05:53:55.195Z,27.27
2019-06-26T05:54:55.191Z,27.36
2019-06-26T05:55:55.186Z,27.27
2019-06-26T05:56:55.173Z,27.32
2019-06-26T05:57:55.191Z,27.25
2019-06-26T05:58:55.143Z,27.33
2019-06-26T05:59:55.139Z,27.33
2019-06-26T06:00:55.127Z,27.21
2019-06-26T06:01:55.110Z,27.30
2019-06-26T06:02:55.118Z,27.25
2019-06-26T06:03:55.115Z,27.32
2019-06-26T06:04:55.076Z,27.26
2019-06-26T06:05:55.064Z,27.18
2019-06-26T06:06:55.052Z,27.32
2019-06-26T06:07:55.089Z,27.20
2019-06-26T06:08:55.032Z,27.26
2019-06-26T06:09:55.020Z,27.21
2019-06-26T06:10:58.141Z,27.26
2019-06-26T06:11:55.094Z,27.25
2019-06-26T06:12:54.984Z,27.25
2019-06-26T06:13:54.980Z,27.21
2019-06-26T06:14:55.090Z,27.29
2019-06-26T06:15:54.958Z,27.27
2019-06-26T06:16:54.944Z,27.25
2019-06-26T06:17:54.973Z,27.35
2019-06-26T06:18:54.931Z,27.26
2019-06-26T06:19:54.918Z,27.35
2019-06-26T06:20:54.895Z,27.27
2019-06-26T06:21:54.886Z,27.32
2019-06-26T06:22:54.902Z,27.27
2019-06-26T06:23:54.875Z,27.29
2019-06-26T06:24:54.857Z,27.33
2019-06-26T06:25:54.849Z,27.26
2019-06-26T06:26:54.833Z,27.22
2019-06-26T06:27:54.826Z,27.25
2019-06-26T06:28:54.871Z,27.32
2019-06-26T06:29:54.804Z,27.26
2019-06-26T06:30:54.883Z,27.25
2019-06-26T06:31:54.798Z,27.27
2019-06-26T06:32:54.919Z,27.27
2019-06-26T06:33:54.780Z,27.20
2019-06-26T06:34:54.741Z,27.22
2019-06-26T06:35:54.824Z,27.26
2019-06-26T06:36:54.785Z,27.20
2019-06-26T06:37:54.763Z,27.25
2019-06-26T06:38:55.053Z,27.27
2019-06-26T06:39:54.831Z,27.20
2019-06-26T06:40:54.726Z,27.25
2019-06-26T06:41:54.837Z,27.26
2019-06-26T06:42:54.655Z,27.25
2019-06-26T06:43:54.785Z,27.21
2019-06-26T06:44:54.810Z,27.20
2019-06-26T06:45:54.616Z,27.30
2019-06-26T06:47:03.962Z,27.21
2019-06-26T06:47:55.629Z,27.21
2019-06-26T06:48:54.612Z,27.20
2019-06-26T06:49:54.576Z,27.26
2019-06-26T06:50:54.566Z,27.29
2019-06-26T06:51:54.618Z,27.26
2019-06-26T06:52:54.639Z,27.25
2019-06-26T06:53:54.539Z,27.25
2019-06-26T06:54:54.538Z,27.21
2019-06-26T06:55:54.652Z,27.20
2019-06-26T06:56:54.540Z,27.27
2019-06-26T06:57:54.499Z,27.25
2019-06-26T06:58:54.555Z,27.26
2019-06-26T06:59:54.505Z,27.26
2019-06-26T07:00:54.506Z,27.27
2019-06-26T07:01:54.453Z,27.26
2019-06-26T07:02:54.447Z,27.27
2019-06-26T07:03:54.549Z,27.25
2019-06-26T07:04:54.494Z,27.29
2019-06-26T07:05:54.453Z,27.33
2019-06-26T07:06:54.550Z,27.26
2019-06-26T07:07:54.431Z,27.25
2019-06-26T07:08:54.391Z,27.27
2019-06-26T07:09:54.409Z,27.27
2019-06-26T07:10:54.340Z,27.32
2019-06-26T07:11:54.335Z,27.30
2019-06-26T07:12:54.362Z,27.35
2019-06-26T07:13:54.312Z,27.30
2019-06-26T07:14:54.303Z,27.30
2019-06-26T07:15:54.285Z,27.37
2019-06-26T07:16:54.313Z,27.32
2019-06-26T07:17:54.285Z,27.42
2019-06-26T07:18:54.251Z,27.35
2019-06-26T07:19:54.249Z,27.40
2019-06-26T07:20:54.248Z,27.37
2019-06-26T07:21:54.222Z,27.40
2019-06-26T07:22:54.584Z,27.40
2019-06-26T07:23:54.195Z,27.36
2019-06-26T07:24:54.355Z,27.44
2019-06-26T07:25:54.183Z,27.45
2019-06-26T07:26:54.322Z,27.49
2019-06-26T07:27:54.155Z,27.48
2019-06-26T07:28:55.015Z,27.48
2019-06-26T07:29:54.501Z,27.49
2019-06-26T07:30:54.119Z,27.52
2019-06-26T07:31:54.112Z,27.44
2019-06-26T07:32:54.094Z,27.45
2019-06-26T07:33:55.641Z,27.48
2019-06-26T07:34:54.189Z,27.49
2019-06-26T07:35:54.066Z,27.51
2019-06-26T07:36:54.083Z,27.48
2019-06-26T07:37:54.041Z,27.58
2019-06-26T07:38:54.058Z,27.52
2019-06-26T07:39:57.779Z,27.55
2019-06-26T07:40:55.045Z,27.49
2019-06-26T07:41:53.995Z,27.58
2019-06-26T07:42:53.990Z,27.55
2019-06-26T07:43:54.008Z,27.55
2019-06-26T07:44:53.974Z,27.52
2019-06-26T07:45:53.966Z,27.55
2019-06-26T07:46:53.944Z,27.60
2019-06-26T07:47:53.980Z,27.49
2019-06-26T07:48:57.380Z,27.58
2019-06-26T07:49:54.060Z,27.65
2019-06-26T07:50:53.917Z,27.54
2019-06-26T07:51:53.897Z,27.63
2019-06-26T07:52:54.100Z,27.63
2019-06-26T07:53:53.972Z,27.63
2019-06-26T07:54:53.859Z,27.65
2019-06-26T07:55:53.866Z,27.60
2019-06-26T07:56:53.849Z,27.58
2019-06-26T07:57:53.836Z,27.55
2019-06-26T07:58:53.810Z,27.63
2019-06-26T07:59:53.811Z,27.51
2019-06-26T08:00:54.490Z,27.64
2019-06-26T08:01:53.825Z,27.63
2019-06-26T08:02:56.680Z,27.65
2019-06-26T08:03:53.752Z,27.67
2019-06-26T08:04:53.780Z,27.67
2019-06-26T08:05:53.731Z,27.64
2019-06-26T08:06:53.730Z,27.67
2019-06-26T08:07:53.733Z,27.71
2019-06-26T08:08:53.751Z,27.67
2019-06-26T08:09:53.730Z,27.65
2019-06-26T08:10:53.687Z,27.67
2019-06-26T08:11:53.721Z,27.65
2019-06-26T08:12:53.662Z,27.75
2019-06-26T08:13:53.641Z,27.70
2019-06-26T08:14:53.697Z,27.74
2019-06-26T08:15:53.698Z,27.73
2019-06-26T08:16:53.615Z,27.78
2019-06-26T08:18:00.637Z,27.73
2019-06-26T08:18:54.635Z,27.80
2019-06-26T08:19:53.610Z,27.73
2019-06-26T08:21:10.901Z,27.73
2019-06-26T08:21:54.550Z,27.75
2019-06-26T08:22:53.599Z,27.77
2019-06-26T08:23:53.539Z,27.77
2019-06-26T08:24:53.522Z,27.74
2019-06-26T08:25:53.523Z,27.82
2019-06-26T08:26:53.496Z,27.83
2019-06-26T08:27:53.495Z,27.85
2019-06-26T08:28:53.485Z,27.78
2019-06-26T08:29:53.462Z,27.87
2019-06-26T08:30:53.463Z,27.83
2019-06-26T08:31:53.445Z,27.90
2019-06-26T08:32:53.569Z,27.90
2019-06-26T08:33:53.528Z,27.98
2019-06-26T08:34:53.436Z,27.92
2019-06-26T08:35:53.401Z,27.98
2019-06-26T08:36:53.403Z,27.90
2019-06-26T08:38:08.917Z,27.92
2019-06-26T08:38:54.365Z,27.95
2019-06-26T08:39:53.562Z,27.96
2019-06-26T08:40:53.346Z,27.92
2019-06-26T08:41:53.330Z,28.00
2019-06-26T08:42:53.318Z,28.01
2019-06-26T08:43:53.306Z,27.98
2019-06-26T08:44:53.308Z,28.01
2019-06-26T08:45:53.520Z,28.02
2019-06-26T08:46:53.294Z,28.00
2019-06-26T08:47:53.268Z,27.96
2019-06-26T08:48:53.251Z,28.00
2019-06-26T08:49:53.373Z,27.98
2019-06-26T08:50:53.336Z,28.01
2019-06-26T08:51:53.265Z,27.90
2019-06-26T08:52:53.215Z,28.02
2019-06-26T08:53:53.200Z,28.02
2019-06-26T08:54:53.204Z,28.04
2019-06-26T08:55:53.187Z,28.04
2019-06-26T08:56:53.206Z,28.14
2019-06-26T08:57:53.184Z,27.96
2019-06-26T08:58:53.168Z,28.15
2019-06-26T08:59:53.132Z,28.07
2019-06-26T09:00:53.163Z,28.01
2019-06-26T09:01:53.118Z,28.05
2019-06-26T09:02:53.103Z,28.07
2019-06-26T09:03:53.097Z,28.07
2019-06-26T09:04:53.100Z,28.07
2019-06-26T09:05:53.099Z,28.04
2019-06-26T09:06:53.092Z,28.20
2019-06-26T09:07:53.119Z,28.05
2019-06-26T09:08:53.037Z,28.01
2019-06-26T09:09:53.070Z,28.07
2019-06-26T09:10:53.012Z,28.08
2019-06-26T09:11:53.017Z,28.20
2019-06-26T09:12:53.016Z,28.05
2019-06-26T09:13:53.041Z,28.05
2019-06-26T09:14:52.992Z,28.02
2019-06-26T09:15:52.956Z,28.15
2019-06-26T09:16:52.986Z,28.12
2019-06-26T09:17:52.937Z,28.15
2019-06-26T09:18:52.921Z,28.20
2019-06-26T09:19:52.923Z,28.15
2019-06-26T09:20:52.903Z,28.14
2019-06-26T09:21:52.916Z,28.17
2019-06-26T09:22:52.902Z,28.20
2019-06-26T09:23:52.870Z,28.15
2019-06-26T09:24:52.862Z,28.29
2019-06-26T09:25:52.850Z,28.35
2019-06-26T09:26:52.936Z,28.20
2019-06-26T09:27:52.889Z,28.23
2019-06-26T09:28:52.827Z,28.26
2019-06-26T09:29:52.803Z,28.29
2019-06-26T09:30:52.862Z,28.29
2019-06-26T09:31:52.780Z,28.23
2019-06-26T09:32:52.765Z,28.30
2019-06-26T09:33:52.759Z,28.33
2019-06-26T09:34:52.746Z,28.30
2019-06-26T09:35:52.763Z,28.30
2019-06-26T09:36:52.746Z,28.30
2019-06-26T09:37:52.713Z,28.32
2019-06-26T09:38:52.699Z,28.33
2019-06-26T09:39:52.740Z,28.33
2019-06-26T09:40:52.684Z,28.29
2019-06-26T09:41:53.148Z,28.35
2019-06-26T09:42:52.661Z,28.37
2019-06-26T09:43:52.687Z,28.38
2019-06-26T09:44:52.635Z,28.38
2019-06-26T09:45:52.635Z,28.35
2019-06-26T09:46:52.623Z,28.41
2019-06-26T09:47:52.609Z,28.37
2019-06-26T09:48:53.668Z,28.44
2019-06-26T09:49:52.583Z,28.42
2019-06-26T09:50:52.572Z,28.39
2019-06-26T09:51:52.594Z,28.52
2019-06-26T09:52:52.612Z,28.45
2019-06-26T09:53:52.547Z,28.49
2019-06-26T09:54:52.560Z,28.57
2019-06-26T09:55:52.527Z,28.57
2019-06-26T09:56:52.505Z,28.54
2019-06-26T09:57:52.521Z,28.57
2019-06-26T09:58:52.503Z,28.54
2019-06-26T09:59:52.473Z,28.51
2019-06-26T10:00:52.470Z,28.56
2019-06-26T10:01:52.463Z,28.52
2019-06-26T10:02:52.500Z,28.54
2019-06-26T10:03:52.443Z,28.52
2019-06-26T10:04:52.415Z,28.60
2019-06-26T10:05:52.408Z,28.57
2019-06-26T10:06:52.388Z,28.62
2019-06-26T10:07:52.391Z,28.66
2019-06-26T10:08:54.438Z,28.60
2019-06-26T10:09:52.361Z,28.66
2019-06-26T10:10:52.359Z,28.66
2019-06-26T10:11:52.367Z,28.67
2019-06-26T10:12:52.404Z,28.67
2019-06-26T10:13:52.319Z,28.67
2019-06-26T10:14:52.301Z,28.69
2019-06-26T10:15:52.322Z,28.67
2019-06-26T10:16:52.433Z,28.63
2019-06-26T10:17:52.271Z,28.64
2019-06-26T10:19:08.644Z,28.66
2019-06-26T10:19:54.250Z,28.67
2019-06-26T10:20:52.256Z,28.76
2019-06-26T10:21:52.231Z,28.66
2019-06-26T10:22:52.221Z,28.75
2019-06-26T10:23:52.225Z,28.74
2019-06-26T10:24:52.214Z,28.76
2019-06-26T10:25:52.264Z,28.74
2019-06-26T10:26:52.212Z,28.81
2019-06-26T10:27:52.175Z,28.76
2019-06-26T10:28:52.475Z,28.78
2019-06-26T10:29:52.210Z,28.82
2019-06-26T10:30:52.128Z,28.88
2019-06-26T10:31:52.164Z,28.86
2019-06-26T10:32:52.099Z,28.88
2019-06-26T10:33:52.099Z,28.86
2019-06-26T10:34:52.248Z,28.89
2019-06-26T10:35:52.071Z,28.93
2019-06-26T10:36:52.069Z,29.01
2019-06-26T10:37:52.050Z,28.96
2019-06-26T10:38:52.055Z,28.98
2019-06-26T10:39:52.025Z,29.12
2019-06-26T10:40:52.017Z,29.05
2019-06-26T10:41:54.929Z,29.10
2019-06-26T10:42:52.038Z,29.07
2019-06-26T10:43:52.161Z,29.02
2019-06-26T10:44:51.972Z,29.05
2019-06-26T10:45:51.975Z,29.04
2019-06-26T10:46:51.985Z,29.10
2019-06-26T10:47:52.037Z,29.10
2019-06-26T10:48:52.100Z,29.17
2019-06-26T10:49:51.912Z,29.01
2019-06-26T10:50:58.134Z,29.14
2019-06-26T10:51:52.899Z,29.10
2019-06-26T10:52:51.881Z,29.01
2019-06-26T10:53:51.937Z,29.10
2019-06-26T10:54:51.884Z,29.13
2019-06-26T10:55:51.845Z,29.12
2019-06-26T10:56:51.835Z,29.13
2019-06-26T10:57:51.873Z,29.01
2019-06-26T10:58:51.864Z,29.08
2019-06-26T10:59:55.466Z,29.14
2019-06-26T11:00:51.817Z,29.07
2019-06-26T11:01:51.851Z,29.13
2019-06-26T11:02:51.768Z,29.13
2019-06-26T11:03:51.814Z,29.12
2019-06-26T11:04:51.763Z,29.17
2019-06-26T11:05:51.767Z,29.13
2019-06-26T11:06:51.739Z,29.17
2019-06-26T11:07:51.714Z,29.20
2019-06-26T11:08:51.716Z,29.20
2019-06-26T11:09:51.721Z,29.17
2019-06-26T11:10:51.682Z,29.14
2019-06-26T11:11:51.755Z,29.17
2019-06-26T11:12:51.730Z,29.13
2019-06-26T11:13:51.650Z,29.20
2019-06-26T11:14:51.677Z,29.14
2019-06-26T11:15:51.626Z,29.17
2019-06-26T11:16:51.730Z,29.10
2019-06-26T11:17:51.644Z,29.05
2019-06-26T11:18:51.965Z,29.13
2019-06-26T11:19:55.157Z,29.13
2019-06-26T11:20:51.577Z,29.07
2019-06-26T11:21:51.574Z,29.12
2019-06-26T11:22:51.572Z,28.98
2019-06-26T11:23:51.541Z,29.12
2019-06-26T11:24:51.539Z,28.97
2019-06-26T11:25:51.531Z,29.08
2019-06-26T11:26:51.520Z,28.98
2019-06-26T11:27:54.532Z,29.14
2019-06-26T11:28:51.486Z,29.04
2019-06-26T11:29:51.517Z,29.05
2019-06-26T11:30:51.497Z,29.08
2019-06-26T11:31:51.457Z,29.07
2019-06-26T11:32:51.602Z,29.12
2019-06-26T11:33:51.611Z,29.02
2019-06-26T11:34:52.102Z,29.04
2019-06-26T11:35:51.516Z,29.08
2019-06-26T11:37:03.200Z,29.08
2019-06-26T11:37:52.613Z,29.08
2019-06-26T11:38:51.407Z,29.07
2019-06-26T11:39:51.391Z,29.13
2019-06-26T11:40:51.414Z,29.10
2019-06-26T11:41:51.397Z,29.12
2019-06-26T11:42:51.368Z,29.07
2019-06-26T11:43:51.323Z,29.10
2019-06-26T11:44:51.337Z,29.10
2019-06-26T11:45:51.342Z,29.07
2019-06-26T11:46:51.285Z,29.07
2019-06-26T11:47:51.392Z,29.02
2019-06-26T11:48:51.366Z,29.04
2019-06-26T11:49:59.877Z,28.98
2019-06-26T11:50:52.253Z,29.01
2019-06-26T11:51:51.322Z,28.91
2019-06-26T11:52:51.390Z,28.89
2019-06-26T11:53:51.267Z,28.89
2019-06-26T11:55:01.834Z,28.91
2019-06-26T11:55:52.218Z,28.91
2019-06-26T11:56:51.298Z,28.88
2019-06-26T11:57:51.261Z,28.88
2019-06-26T11:58:51.161Z,28.89
2019-06-26T11:59:51.178Z,28.89
2019-06-26T12:00:51.203Z,28.85
2019-06-26T12:01:51.122Z,28.85
2019-06-26T12:02:51.196Z,28.86
2019-06-26T12:03:51.185Z,28.88
2019-06-26T12:04:51.098Z,28.84
2019-06-26T12:05:51.090Z,28.82
2019-06-26T12:06:51.127Z,28.93
2019-06-26T12:07:51.094Z,28.79
2019-06-26T12:08:51.089Z,28.84
2019-06-26T12:09:51.186Z,28.89
2019-06-26T12:10:51.029Z,28.81
2019-06-26T12:11:51.024Z,28.86
2019-06-26T12:12:51.024Z,28.86
2019-06-26T12:13:51.006Z,28.89
2019-06-26T12:14:51.069Z,28.91
2019-06-26T12:15:51.082Z,28.91
2019-06-26T12:16:51.036Z,28.91
2019-06-26T12:17:51.015Z,28.98
2019-06-26T12:18:50.942Z,28.96
2019-06-26T12:19:50.924Z,29.01
2019-06-26T12:20:50.944Z,28.97
2019-06-26T12:21:50.928Z,29.12
2019-06-26T12:22:51.014Z,29.07
2019-06-26T12:23:50.876Z,28.97
2019-06-26T12:24:50.872Z,29.08
2019-06-26T12:25:50.898Z,29.10
2019-06-26T12:26:50.881Z,29.10
2019-06-26T12:27:50.842Z,29.07
2019-06-26T12:28:50.827Z,29.08
2019-06-26T12:29:50.948Z,29.01
2019-06-26T12:30:50.812Z,29.10
2019-06-26T12:31:50.796Z,28.98
2019-06-26T12:33:02.223Z,29.08
2019-06-26T12:33:51.801Z,29.16
2019-06-26T12:34:50.767Z,29.16
2019-06-26T12:35:50.845Z,29.22
2019-06-26T12:36:50.827Z,29.12
2019-06-26T12:37:50.852Z,29.17
2019-06-26T12:38:50.935Z,29.23
2019-06-26T12:39:50.714Z,29.17
2019-06-26T12:40:50.719Z,29.16
2019-06-26T12:41:50.688Z,29.19
2019-06-26T12:42:50.691Z,29.14
2019-06-26T12:43:50.665Z,29.27
2019-06-26T12:44:50.691Z,29.26
2019-06-26T12:45:50.648Z,29.22
2019-06-26T12:46:50.668Z,29.26
2019-06-26T12:47:50.679Z,29.26
2019-06-26T12:48:50.614Z,29.27
2019-06-26T12:49:50.618Z,29.26
2019-06-26T12:50:50.612Z,29.32
2019-06-26T12:51:50.580Z,29.29
2019-06-26T12:52:50.602Z,29.26